Time;durP1;ratioP1;P1;durP2;ratioP2;P2;SDS_P1;SDS_P2;PMS_P1;PMS_P2;Temp;Humidity;BMP_temperature;BMP_pressure;BME280_temperature;BME280_humidity;BME280_pressure;Samples;Min_cycle;Max_cycle;Signal;HPM_P1;HPM_P2
2022/12/20 00:01:23;;;;;;;6.95;6.05;;;8.90;99.90;;;;;;5128229;27;20046;-48
2022/12/20 00:03:52;;;;;;;8.00;6.60;;;8.90;99.90;;;;;;5122499;27;20440;-44
2022/12/20 00:06:18;;;;;;;9.88;5.80;;;9.00;99.90;;;;;;5122210;27;20122;-50
2022/12/20 00:08:44;;;;;;;8.25;5.88;;;9.00;99.90;;;;;;5116106;27;20043;-47
2022/12/20 00:11:10;;;;;;;7.70;5.45;;;9.00;99.90;;;;;;5115884;27;20063;-45
2022/12/20 00:13:36;;;;;;;7.20;5.75;;;9.00;99.90;;;;;;5115370;27;20035;-50
2022/12/20 00:16:15;;;;;;;7.20;5.85;;;9.00;99.90;;;;;;5133646;27;20510;-47
2022/12/20 00:18:41;;;;;;;8.38;6.20;;;9.00;99.90;;;;;;5120105;27;20050;-53
2022/12/20 00:21:09;;;;;;;9.00;6.55;;;8.90;99.90;;;;;;5084632;27;20509;-47
2022/12/20 00:23:36;;;;;;;7.72;5.10;;;8.90;99.90;;;;;;5119478;27;20111;-48
2022/12/20 00:26:08;;;;;;;7.35;5.35;;;8.90;99.90;;;;;;5119598;27;20549;-47
2022/12/20 00:28:35;;;;;;;9.63;5.85;;;9.00;99.90;;;;;;5128891;27;20126;-46
2022/12/20 00:31:01;;;;;;;8.30;5.40;;;9.00;99.90;;;;;;5133675;27;20039;-51
2022/12/20 00:33:27;;;;;;;9.18;4.95;;;9.00;99.90;;;;;;5119193;27;20080;-48
2022/12/20 00:35:56;;;;;;;8.52;5.53;;;9.10;99.90;;;;;;5119385;27;20390;-45
2022/12/20 00:38:23;;;;;;;6.88;5.50;;;9.10;99.90;;;;;;5131040;27;20035;-49
2022/12/20 00:41:02;;;;;;;6.60;5.30;;;9.20;99.90;;;;;;5140421;27;20099;-48
2022/12/20 00:43:29;;;;;;;7.78;5.07;;;9.10;99.90;;;;;;5127122;27;20043;-47
2022/12/20 00:45:55;;;;;;;7.43;5.13;;;9.20;99.90;;;;;;5119281;27;20516;-44
2022/12/20 00:48:21;;;;;;;8.02;5.07;;;9.10;99.90;;;;;;5132806;27;20046;-46
2022/12/20 00:50:47;;;;;;;7.72;4.97;;;9.20;99.90;;;;;;5119148;27;20050;-47
2022/12/20 00:53:12;;;;;;;7.53;5.05;;;9.20;99.90;;;;;;5118305;27;20040;-47
2022/12/20 00:55:43;;;;;;;6.32;4.68;;;9.20;99.90;;;;;;5124791;27;20464;-46
2022/12/20 00:58:09;;;;;;;7.82;5.20;;;9.20;99.90;;;;;;5140144;27;20117;-44
2022/12/20 01:00:35;;;;;;;9.85;4.80;;;9.20;99.90;;;;;;5126501;27;20544;-48
2022/12/20 01:03:01;;;;;;;10.10;5.43;;;9.20;99.90;;;;;;5138859;27;20568;-43
2022/12/20 01:05:26;;;;;;;7.60;5.22;;;9.20;99.90;;;;;;5119216;27;20045;-49
2022/12/20 01:07:52;;;;;;;7.25;4.53;;;9.10;99.90;;;;;;5101051;27;20111;-47
2022/12/20 01:10:18;;;;;;;8.55;5.38;;;9.20;99.90;;;;;;5101130;27;20043;-48
2022/12/20 01:12:43;;;;;;;6.70;5.00;;;9.10;99.90;;;;;;5130483;27;20049;-47
2022/12/20 01:15:09;;;;;;;5.72;4.45;;;9.10;99.90;;;;;;5124632;27;20488;-44
2022/12/20 01:17:35;;;;;;;6.38;4.95;;;9.20;99.90;;;;;;5125623;27;20077;-48
2022/12/20 01:20:01;;;;;;;7.63;5.03;;;9.20;99.90;;;;;;5125616;27;20042;-44
2022/12/20 01:22:27;;;;;;;6.05;5.07;;;9.10;99.90;;;;;;5124865;27;20100;-49
2022/12/20 01:24:52;;;;;;;7.32;4.93;;;9.10;99.90;;;;;;5117881;27;20039;-45
2022/12/20 01:27:18;;;;;;;6.45;4.82;;;9.10;99.90;;;;;;5117853;27;20047;-49
2022/12/20 01:29:44;;;;;;;6.32;4.93;;;9.20;99.90;;;;;;5118525;27;20599;-47
2022/12/20 01:32:09;;;;;;;7.47;5.20;;;9.20;99.90;;;;;;5099464;27;20445;-48
2022/12/20 01:34:35;;;;;;;7.00;4.63;;;9.20;99.90;;;;;;5118037;27;20042;-48
2022/12/20 01:37:01;;;;;;;9.63;5.20;;;9.20;99.90;;;;;;5118376;27;20035;-46
2022/12/20 01:39:26;;;;;;;7.47;5.80;;;9.20;99.90;;;;;;5118990;27;20039;-43
2022/12/20 01:41:52;;;;;;;8.15;5.00;;;9.20;99.90;;;;;;5100188;27;20042;-48
2022/12/20 01:44:17;;;;;;;5.95;4.55;;;9.30;99.90;;;;;;5106013;27;20465;-45
2022/12/20 01:46:45;;;;;;;5.72;4.43;;;9.20;99.90;;;;;;5125597;27;20086;-47
2022/12/20 01:49:17;;;;;;;8.07;4.97;;;9.20;99.90;;;;;;5118649;27;20147;-43
2022/12/20 01:52:05;;;;;;;6.13;5.32;;;9.20;99.90;;;;;;5118104;27;20473;-44
2022/12/20 01:54:38;;;;;;;5.60;4.63;;;9.20;99.90;;;;;;5117902;27;20039;-43
2022/12/20 01:57:09;;;;;;;10.52;5.43;;;9.30;99.90;;;;;;5137192;27;20042;-48
2022/12/20 01:59:37;;;;;;;7.72;5.15;;;9.30;99.90;;;;;;5127205;27;20114;-50
2022/12/20 02:02:08;;;;;;;8.52;5.05;;;9.30;99.90;;;;;;5137349;27;20043;-44
2022/12/20 02:04:34;;;;;;;7.47;4.57;;;9.30;99.90;;;;;;5137977;27;20043;-46
2022/12/20 02:07:01;;;;;;;9.18;4.30;;;9.30;99.90;;;;;;5118168;27;20487;-48
2022/12/20 02:09:27;;;;;;;5.63;4.68;;;9.30;99.90;;;;;;5118164;27;20047;-43
2022/12/20 02:12:02;;;;;;;6.72;4.65;;;9.30;99.90;;;;;;5121989;27;20417;-46
2022/12/20 02:14:48;;;;;;;9.88;4.53;;;9.30;99.90;;;;;;5122518;27;20034;-46
2022/12/20 02:17:37;;;;;;;8.43;4.95;;;9.30;99.90;;;;;;5117729;27;20043;-47
2022/12/20 02:20:35;;;;;;;11.05;4.57;;;9.40;99.90;;;;;;5118156;27;20067;-45
2022/12/20 02:23:22;;;;;;;9.23;5.25;;;9.40;99.90;;;;;;5116828;27;20047;-49
2022/12/20 02:26:13;;;;;;;9.52;5.10;;;9.30;99.90;;;;;;5099377;27;20635;-45
2022/12/20 02:29:19;;;;;;;7.00;4.55;;;9.30;99.90;;;;;;5117473;27;20401;-46
2022/12/20 02:31:56;;;;;;;9.68;5.22;;;9.30;99.90;;;;;;5117339;27;20047;-44
2022/12/20 02:34:24;;;;;;;9.23;5.90;;;9.30;99.90;;;;;;5116284;27;20054;-45
2022/12/20 02:36:51;;;;;;;5.78;4.80;;;9.30;99.90;;;;;;5137680;27;20557;-44
2022/12/20 02:39:16;;;;;;;8.57;6.22;;;9.20;99.90;;;;;;5117558;27;20152;-43
2022/12/20 02:42:05;;;;;;;10.60;5.22;;;9.10;99.90;;;;;;5116703;27;20453;-46
2022/12/20 02:47:36;;;;;;;7.35;5.50;;;9.10;99.90;;;;;;5116666;27;20079;-44
2022/12/20 02:50:03;;;;;;;10.55;6.45;;;9.10;99.90;;;;;;5097914;27;20058;-48
2022/12/20 02:52:30;;;;;;;8.18;5.90;;;9.00;99.90;;;;;;5117004;27;20130;-48
2022/12/20 02:54:57;;;;;;;8.25;5.97;;;9.10;99.90;;;;;;5116221;27;20250;-47
2022/12/20 02:57:47;;;;;;;8.07;5.97;;;9.10;99.90;;;;;;5116833;27;20082;-51
2022/12/20 03:00:17;;;;;;;6.78;6.13;;;9.10;99.90;;;;;;5119978;27;20107;-47
2022/12/20 03:05:31;;;;;;;9.43;6.50;;;9.00;99.90;;;;;;5117098;27;20121;-50
2022/12/20 03:07:57;;;;;;;8.85;5.78;;;9.00;99.90;;;;;;5117217;27;20047;-48
2022/12/20 03:10:23;;;;;;;10.82;6.78;;;9.10;99.90;;;;;;5117667;27;20058;-45
2022/12/20 03:12:49;;;;;;;7.53;5.97;;;9.10;99.90;;;;;;5115843;27;20240;-47
2022/12/20 03:15:15;;;;;;;8.68;6.13;;;9.20;99.90;;;;;;5106231;27;20046;-43
2022/12/20 03:17:40;;;;;;;7.07;5.90;;;9.10;99.90;;;;;;5122416;27;20054;-46
2022/12/20 03:20:07;;;;;;;9.30;6.43;;;9.20;99.90;;;;;;5106013;27;20051;-44
2022/12/20 03:22:33;;;;;;;9.75;5.90;;;9.10;99.90;;;;;;5136744;27;20687;-48
2022/12/20 03:24:59;;;;;;;8.48;6.75;;;9.10;99.90;;;;;;5129260;27;20393;-49
2022/12/20 03:27:27;;;;;;;9.07;6.60;;;9.20;99.90;;;;;;5131145;27;20047;-43
2022/12/20 03:29:53;;;;;;;8.45;5.80;;;9.10;99.90;;;;;;5124413;27;20043;-50
2022/12/20 03:32:18;;;;;;;9.00;6.43;;;9.00;99.90;;;;;;5130251;27;20043;-45
2022/12/20 03:34:44;;;;;;;7.68;6.10;;;9.10;99.90;;;;;;5136485;27;20492;-44
2022/12/20 03:37:10;;;;;;;8.63;6.13;;;9.10;99.90;;;;;;5121868;27;20548;-46
2022/12/20 03:39:35;;;;;;;10.30;6.40;;;9.10;99.90;;;;;;5116814;27;20389;-49
2022/12/20 03:42:01;;;;;;;9.50;6.60;;;9.10;99.90;;;;;;5116020;27;20043;-44
2022/12/20 03:44:26;;;;;;;8.13;6.68;;;9.00;99.90;;;;;;5116725;27;21231;-43
2022/12/20 03:46:52;;;;;;;8.48;6.45;;;9.00;99.90;;;;;;5116972;27;20049;-48
2022/12/20 03:49:18;;;;;;;7.60;6.20;;;9.00;99.90;;;;;;5130697;27;20062;-43
2022/12/20 03:51:43;;;;;;;10.07;6.93;;;9.10;99.90;;;;;;5116392;27;20082;-50
2022/12/20 03:54:09;;;;;;;10.52;6.43;;;9.10;99.90;;;;;;5131947;27;20058;-47
2022/12/20 03:56:35;;;;;;;7.63;6.38;;;9.00;99.90;;;;;;5141023;27;20042;-49
2022/12/20 03:59:01;;;;;;;9.38;8.10;;;9.00;99.90;;;;;;5134403;27;20393;-46
2022/12/20 04:01:28;;;;;;;9.50;7.20;;;9.10;99.90;;;;;;5134901;27;20467;-45
2022/12/20 04:03:55;;;;;;;7.55;6.70;;;9.10;99.90;;;;;;5126550;27;20594;-51
2022/12/20 04:06:22;;;;;;;9.80;7.03;;;9.00;99.90;;;;;;5127061;27;20119;-46
2022/12/20 04:08:48;;;;;;;9.95;7.18;;;9.00;99.90;;;;;;5114641;27;20035;-44
2022/12/20 04:11:17;;;;;;;9.45;7.55;;;9.00;99.90;;;;;;5119850;27;20486;-47
2022/12/20 04:13:48;;;;;;;10.38;7.57;;;9.10;99.90;;;;;;5139973;27;20043;-44
2022/12/20 04:16:16;;;;;;;8.90;7.60;;;9.10;99.90;;;;;;5140373;27;20178;-49
2022/12/20 04:18:42;;;;;;;9.73;8.13;;;9.10;99.90;;;;;;5140583;27;20319;-49
2022/12/20 04:21:10;;;;;;;9.40;6.70;;;9.00;99.90;;;;;;5119792;27;20061;-49
2022/12/20 04:23:37;;;;;;;10.98;7.53;;;9.20;99.90;;;;;;5130038;27;20115;-49
2022/12/20 04:26:04;;;;;;;10.77;7.45;;;9.10;99.90;;;;;;5137985;27;20114;-48
2022/12/20 04:28:30;;;;;;;8.85;7.03;;;9.10;99.90;;;;;;5121545;27;20529;-49
2022/12/20 04:30:57;;;;;;;10.73;6.60;;;9.20;99.90;;;;;;5105226;27;20039;-46
2022/12/20 04:33:26;;;;;;;7.97;6.60;;;9.30;99.90;;;;;;5118870;27;20058;-45
2022/12/20 04:35:52;;;;;;;7.68;6.78;;;9.20;99.90;;;;;;5133212;27;20043;-46
2022/12/20 04:38:19;;;;;;;9.00;6.70;;;9.20;99.90;;;;;;5119487;27;20047;-47
2022/12/20 04:40:48;;;;;;;9.70;6.85;;;9.30;99.90;;;;;;5119531;27;20054;-48
2022/12/20 04:43:14;;;;;;;8.55;7.28;;;9.30;99.90;;;;;;5119156;27;20492;-45
2022/12/20 04:45:40;;;;;;;9.07;6.28;;;9.30;99.90;;;;;;5119294;27;20115;-50
2022/12/20 04:48:06;;;;;;;11.55;6.82;;;9.30;99.90;;;;;;5119784;27;20039;-44
2022/12/20 04:50:31;;;;;;;10.20;7.10;;;9.30;99.90;;;;;;5120918;27;20488;-44
2022/12/20 04:55:41;;;;;;;8.48;6.90;;;9.30;99.90;;;;;;5125472;27;20348;-43
2022/12/20 04:58:07;;;;;;;9.07;7.47;;;9.30;99.90;;;;;;5140218;27;20473;-50
2022/12/20 05:00:33;;;;;;;7.35;6.53;;;9.40;99.90;;;;;;5132323;27;20556;-48
2022/12/20 05:02:59;;;;;;;7.85;6.72;;;9.40;99.90;;;;;;5119270;27;20378;-49
2022/12/20 05:05:25;;;;;;;7.75;6.13;;;9.40;99.90;;;;;;5132984;27;20646;-46
2022/12/20 05:07:51;;;;;;;8.27;6.70;;;9.40;99.90;;;;;;5119884;27;20051;-44
2022/12/20 05:10:18;;;;;;;8.48;6.35;;;9.40;99.90;;;;;;5140116;27;20094;-46
2022/12/20 05:12:43;;;;;;;9.82;6.80;;;9.50;99.90;;;;;;5127116;27;20062;-50
2022/12/20 05:15:10;;;;;;;11.70;6.20;;;9.40;99.90;;;;;;5132953;27;20135;-49
2022/12/20 05:17:36;;;;;;;7.95;5.90;;;9.50;99.90;;;;;;5100342;27;20046;-46
2022/12/20 05:20:02;;;;;;;8.65;6.10;;;9.50;99.90;;;;;;5125719;27;20388;-44
2022/12/20 05:27:57;;;;;;;10.23;6.38;;;9.50;99.90;;;;;;5118457;27;20051;-48
2022/12/20 05:30:23;;;;;;;8.43;5.55;;;9.40;99.90;;;;;;5118372;27;20047;-45
2022/12/20 05:32:49;;;;;;;9.38;5.18;;;9.50;99.90;;;;;;5124011;27;20157;-45
2022/12/20 05:35:15;;;;;;;10.68;6.13;;;9.50;99.90;;;;;;5138988;27;20043;-48
2022/12/20 05:37:41;;;;;;;9.77;5.72;;;9.50;99.90;;;;;;5133485;27;20072;-44
2022/12/20 05:40:07;;;;;;;7.60;5.60;;;9.50;99.90;;;;;;5119301;27;20039;-42
2022/12/20 05:42:33;;;;;;;8.95;5.45;;;9.60;99.90;;;;;;5118098;27;20442;-43
2022/12/20 05:45:02;;;;;;;9.35;5.00;;;9.60;99.90;;;;;;5118275;27;20036;-49
2022/12/20 05:47:32;;;;;;;7.72;5.90;;;9.70;99.90;;;;;;5118813;27;20050;-45
2022/12/20 05:50:02;;;;;;;7.13;5.07;;;9.60;99.90;;;;;;5118727;27;20432;-45
2022/12/20 05:52:28;;;;;;;8.57;5.35;;;9.60;99.90;;;;;;5123718;27;20423;-44
2022/12/20 05:54:54;;;;;;;8.40;5.13;;;9.70;99.90;;;;;;5099814;27;20386;-49
2022/12/20 05:57:20;;;;;;;5.72;4.97;;;9.70;99.90;;;;;;5131479;27;20046;-44
2022/12/20 05:59:45;;;;;;;8.15;5.07;;;9.70;99.90;;;;;;5118403;27;20047;-44
2022/12/20 06:02:11;;;;;;;7.80;5.28;;;9.70;99.90;;;;;;5117566;27;20046;-46
2022/12/20 06:04:37;;;;;;;7.68;4.97;;;9.70;99.90;;;;;;5099600;27;20047;-44
2022/12/20 06:07:04;;;;;;;6.32;5.05;;;9.80;99.90;;;;;;5118317;27;20046;-45
2022/12/20 06:09:30;;;;;;;8.55;4.75;;;9.70;99.90;;;;;;5118156;27;20054;-47
2022/12/20 06:11:56;;;;;;;6.85;4.45;;;9.80;99.90;;;;;;5117444;27;20478;-49
2022/12/20 06:14:22;;;;;;;8.18;4.97;;;9.80;99.90;;;;;;5138250;27;20093;-50
2022/12/20 06:16:48;;;;;;;6.50;4.50;;;9.90;99.90;;;;;;5131772;27;20525;-49
2022/12/20 06:19:14;;;;;;;9.00;5.28;;;9.90;99.90;;;;;;5132171;27;20046;-51
2022/12/20 06:21:40;;;;;;;7.85;5.68;;;9.90;99.90;;;;;;5131380;27;20126;-47
2022/12/20 06:24:06;;;;;;;8.32;5.68;;;9.80;99.90;;;;;;5116390;27;20110;-48
2022/12/20 06:26:35;;;;;;;7.75;6.13;;;9.80;99.90;;;;;;5118266;27;20122;-47
2022/12/20 06:29:09;;;;;;;7.72;6.93;;;9.80;99.90;;;;;;5128202;27;20126;-44
2022/12/20 06:31:35;;;;;;;9.30;6.75;;;9.60;99.90;;;;;;5138972;27;20408;-47
2022/12/20 06:34:00;;;;;;;8.77;7.30;;;9.60;99.90;;;;;;5137874;27;20035;-49
2022/12/20 06:36:26;;;;;;;7.70;6.97;;;9.50;99.90;;;;;;5138741;27;20032;-46
2022/12/20 06:38:52;;;;;;;10.00;7.78;;;9.50;99.90;;;;;;5123131;27;20059;-47
2022/12/20 06:41:18;;;;;;;12.75;8.27;;;9.40;99.90;;;;;;5129400;27;20099;-45
2022/12/20 06:43:43;;;;;;;10.63;8.43;;;9.40;99.90;;;;;;5132943;27;20432;-44
2022/12/20 06:46:09;;;;;;;10.23;8.55;;;9.40;99.90;;;;;;5139114;27;20035;-51
2022/12/20 06:48:35;;;;;;;12.15;8.80;;;9.40;99.90;;;;;;5138584;27;20043;-49
2022/12/20 06:51:00;;;;;;;9.80;8.75;;;9.40;99.90;;;;;;5129585;27;20431;-45
2022/12/20 06:53:26;;;;;;;13.93;9.32;;;9.40;99.90;;;;;;5116848;27;20035;-44
2022/12/20 06:55:52;;;;;;;9.63;8.60;;;9.50;99.90;;;;;;5124872;27;20043;-49
2022/12/20 06:58:19;;;;;;;10.73;8.20;;;9.50;99.90;;;;;;5138195;27;20046;-48
2022/12/20 07:00:45;;;;;;;10.15;8.93;;;9.50;99.90;;;;;;5138078;27;20038;-47
2022/12/20 07:03:11;;;;;;;8.90;7.55;;;9.50;99.90;;;;;;5121906;27;20054;-44
2022/12/20 07:05:37;;;;;;;10.18;8.05;;;9.50;99.90;;;;;;5106815;27;20038;-48
2022/12/20 07:08:03;;;;;;;10.02;7.75;;;9.50;99.90;;;;;;5121676;27;20164;-44
2022/12/20 07:10:33;;;;;;;10.00;8.45;;;9.50;99.90;;;;;;5138220;27;20039;-48
2022/12/20 07:12:59;;;;;;;11.68;8.95;;;9.50;99.90;;;;;;5124196;27;20058;-51
2022/12/20 07:15:24;;;;;;;12.30;8.40;;;9.50;99.90;;;;;;5118408;27;20051;-46
2022/12/20 07:17:50;;;;;;;13.00;9.38;;;9.40;99.90;;;;;;5116594;27;20073;-45
2022/12/20 07:20:16;;;;;;;11.07;8.30;;;9.60;99.90;;;;;;5097977;28;20069;-44
2022/12/20 07:22:42;;;;;;;14.40;9.07;;;9.60;99.90;;;;;;5117702;27;20039;-47
2022/12/20 07:25:09;;;;;;;10.15;8.02;;;9.50;99.90;;;;;;5135271;27;20050;-48
2022/12/20 07:27:35;;;;;;;10.45;8.52;;;9.60;99.90;;;;;;5101865;27;20054;-48
2022/12/20 07:30:01;;;;;;;11.75;8.68;;;9.50;99.90;;;;;;5124245;27;20042;-45
2022/12/20 07:32:26;;;;;;;8.82;7.93;;;9.60;99.90;;;;;;5122618;27;20050;-45
2022/12/20 07:34:52;;;;;;;9.18;8.27;;;9.60;99.90;;;;;;5136806;27;20825;-46
2022/12/20 07:37:18;;;;;;;10.82;7.85;;;9.60;99.90;;;;;;5124071;27;20561;-47
2022/12/20 07:39:43;;;;;;;10.70;8.85;;;9.70;99.90;;;;;;5121169;27;20458;-46
2022/12/20 07:42:10;;;;;;;12.40;7.65;;;9.60;99.90;;;;;;5122073;27;20404;-47
2022/12/20 07:44:36;;;;;;;9.45;8.50;;;9.60;99.90;;;;;;5132369;27;20071;-44
2022/12/20 07:47:01;;;;;;;10.98;8.45;;;9.60;99.90;;;;;;5120217;27;20078;-47
2022/12/20 07:49:27;;;;;;;9.73;8.38;;;9.60;99.90;;;;;;5120309;27;20434;-46
2022/12/20 07:51:56;;;;;;;12.13;8.20;;;9.60;99.90;;;;;;5119529;27;20523;-48
2022/12/20 07:54:30;;;;;;;8.88;7.97;;;9.60;99.90;;;;;;5120484;27;20569;-46
2022/12/20 07:56:59;;;;;;;8.30;7.47;;;9.60;99.90;;;;;;5138050;27;20050;-43
2022/12/20 07:59:35;;;;;;;9.95;7.50;;;9.70;99.90;;;;;;5141936;27;20061;-45
2022/12/20 08:02:01;;;;;;;9.93;7.65;;;9.60;99.90;;;;;;5140262;27;20493;-46
2022/12/20 08:04:29;;;;;;;10.70;8.40;;;9.60;99.90;;;;;;5108735;27;20600;-47
2022/12/20 08:06:58;;;;;;;10.80;7.18;;;9.60;99.90;;;;;;5131014;27;20058;-48
2022/12/20 08:09:27;;;;;;;8.85;7.97;;;9.60;99.90;;;;;;5119025;27;20047;-45
2022/12/20 08:11:53;;;;;;;10.55;7.38;;;9.80;99.90;;;;;;5127829;27;20047;-45
2022/12/20 08:14:19;;;;;;;13.43;7.45;;;9.60;99.90;;;;;;5130985;27;20487;-45
2022/12/20 08:16:45;;;;;;;9.68;6.47;;;9.60;99.90;;;;;;5132923;27;20052;-48
2022/12/20 08:19:11;;;;;;;12.30;7.60;;;9.70;99.90;;;;;;5119158;27;20039;-45
2022/12/20 08:21:37;;;;;;;8.20;6.53;;;9.60;99.90;;;;;;5107554;27;20852;-46
2022/12/20 08:24:03;;;;;;;9.82;7.10;;;9.70;99.90;;;;;;5125763;27;20365;-46
2022/12/20 08:26:29;;;;;;;8.02;6.30;;;9.60;99.90;;;;;;5126645;27;20373;-49
2022/12/20 08:28:55;;;;;;;8.73;6.63;;;9.70;99.90;;;;;;5104910;27;20061;-45
2022/12/20 08:31:21;;;;;;;7.90;6.63;;;9.70;99.90;;;;;;5100724;27;20694;-46
2022/12/20 08:33:47;;;;;;;10.07;6.70;;;9.80;99.90;;;;;;5117439;27;20035;-42
2022/12/20 08:36:13;;;;;;;7.90;6.65;;;9.70;99.90;;;;;;5119058;27;20136;-46
2022/12/20 08:38:40;;;;;;;8.02;6.60;;;9.80;99.90;;;;;;5119807;27;20043;-45
2022/12/20 08:41:09;;;;;;;8.00;6.03;;;9.80;99.90;;;;;;5119275;27;20214;-46
2022/12/20 08:43:35;;;;;;;9.48;6.50;;;9.80;99.90;;;;;;5132071;27;20372;-46
2022/12/20 08:46:01;;;;;;;8.40;5.53;;;9.80;99.90;;;;;;5127317;27;20046;-47
2022/12/20 08:48:27;;;;;;;6.75;5.10;;;9.70;99.90;;;;;;5140192;27;20047;-42
2022/12/20 08:50:59;;;;;;;7.85;5.07;;;9.80;99.90;;;;;;5132561;27;20058;-47
2022/12/20 08:53:25;;;;;;;7.03;5.35;;;9.80;99.90;;;;;;5125801;27;20099;-48
2022/12/20 08:55:51;;;;;;;10.27;5.72;;;9.80;99.90;;;;;;5139828;27;20054;-46
2022/12/20 08:58:17;;;;;;;7.78;5.07;;;9.90;99.90;;;;;;5139814;27;20438;-47
2022/12/20 09:00:43;;;;;;;7.55;4.75;;;10.00;99.90;;;;;;5131710;27;20548;-45
2022/12/20 09:03:10;;;;;;;10.02;4.57;;;9.90;99.90;;;;;;5118006;27;20043;-46
2022/12/20 09:05:42;;;;;;;8.48;4.72;;;9.90;99.90;;;;;;5118922;27;20641;-44
2022/12/20 09:08:07;;;;;;;5.30;4.22;;;10.00;99.90;;;;;;5119016;27;20168;-47
2022/12/20 09:10:33;;;;;;;10.10;5.03;;;10.00;99.90;;;;;;5100156;27;20572;-48
2022/12/20 09:12:59;;;;;;;6.72;4.90;;;10.00;99.90;;;;;;5129772;27;20385;-49
2022/12/20 09:15:26;;;;;;;7.05;4.55;;;10.00;99.90;;;;;;5127319;27;20467;-44
2022/12/20 09:17:52;;;;;;;6.43;3.95;;;10.10;99.90;;;;;;5139198;27;20047;-45
2022/12/20 09:20:17;;;;;;;5.43;3.92;;;10.20;99.90;;;;;;5139151;27;20475;-45
2022/12/20 09:22:43;;;;;;;7.47;4.25;;;10.20;99.90;;;;;;5130025;27;20445;-48
2022/12/20 09:25:09;;;;;;;6.78;4.22;;;10.20;99.90;;;;;;5123286;27;20041;-47
2022/12/20 09:27:35;;;;;;;7.43;4.85;;;10.20;99.90;;;;;;5103056;27;20400;-51
2022/12/20 09:30:00;;;;;;;8.63;4.03;;;10.20;99.90;;;;;;5125037;27;20428;-45
2022/12/20 09:32:26;;;;;;;8.18;4.45;;;10.20;99.90;;;;;;5122482;27;20047;-42
2022/12/20 09:34:51;;;;;;;6.00;3.90;;;10.30;99.90;;;;;;5125896;27;20536;-45
2022/12/20 09:37:17;;;;;;;10.35;4.70;;;10.20;99.90;;;;;;5107103;27;20042;-46
2022/12/20 09:39:43;;;;;;;6.25;4.53;;;10.20;99.90;;;;;;5127641;27;20039;-47
2022/12/20 09:42:08;;;;;;;6.28;4.30;;;10.20;99.90;;;;;;5116388;27;20054;-46
2022/12/20 09:44:38;;;;;;;5.90;4.18;;;10.20;99.90;;;;;;5121553;27;20050;-49
2022/12/20 09:47:10;;;;;;;5.40;4.43;;;10.10;99.90;;;;;;5123670;27;20102;-48
2022/12/20 09:49:40;;;;;;;7.70;4.38;;;10.10;99.90;;;;;;5121460;27;20035;-44
2022/12/20 09:52:11;;;;;;;8.43;4.53;;;10.20;99.90;;;;;;5116200;27;20051;-45
2022/12/20 09:54:43;;;;;;;8.23;4.38;;;10.10;99.90;;;;;;5114051;27;20500;-50
2022/12/20 09:57:18;;;;;;;5.65;4.32;;;10.10;99.90;;;;;;5112520;27;20370;-43
2022/12/20 09:59:44;;;;;;;5.72;4.30;;;10.10;99.90;;;;;;5113330;27;20390;-44
2022/12/20 10:02:19;;;;;;;7.63;4.13;;;10.20;99.90;;;;;;5115966;27;20043;-46
2022/12/20 10:04:45;;;;;;;8.05;4.20;;;10.20;99.90;;;;;;5110783;27;20054;-49
2022/12/20 10:07:48;;;;;;;7.22;3.90;;;10.20;99.90;;;;;;5112354;27;20062;-51
2022/12/20 10:10:46;;;;;;;6.93;4.28;;;10.20;99.90;;;;;;5108957;27;20035;-48
2022/12/20 10:13:30;;;;;;;7.57;4.57;;;10.20;99.90;;;;;;5023649;28;20053;-45
2022/12/20 10:16:33;;;;;;;8.20;4.05;;;10.20;99.90;;;;;;5023120;28;20554;-43
2022/12/20 10:19:07;;;;;;;8.45;4.55;;;10.20;99.90;;;;;;5021470;28;20044;-48
2022/12/20 10:21:41;;;;;;;8.27;4.00;;;10.20;99.90;;;;;;5026015;28;20037;-44
2022/12/20 10:24:27;;;;;;;6.60;4.60;;;10.10;99.90;;;;;;5025789;28;20432;-48
2022/12/20 10:26:53;;;;;;;5.70;4.32;;;10.20;99.90;;;;;;5020114;28;20083;-45
2022/12/20 10:29:20;;;;;;;6.80;4.32;;;10.20;99.90;;;;;;5024480;28;20053;-47
2022/12/20 10:31:57;;;;;;;5.90;4.20;;;10.30;99.90;;;;;;5006439;28;20037;-44
2022/12/20 10:34:23;;;;;;;6.20;3.67;;;10.30;99.90;;;;;;5015417;28;20173;-43
2022/12/20 10:37:17;;;;;;;5.45;3.97;;;10.30;99.90;;;;;;5022087;28;20557;-43
2022/12/20 10:39:47;;;;;;;9.10;4.28;;;10.20;99.90;;;;;;5024692;28;20051;-43
2022/12/20 10:42:24;;;;;;;7.68;4.32;;;10.20;99.90;;;;;;5023621;28;20045;-48
2022/12/20 10:44:50;;;;;;;7.50;5.55;;;10.20;99.90;;;;;;5015415;28;20049;-47
2022/12/20 10:47:39;;;;;;;8.25;4.90;;;10.20;99.90;;;;;;5007690;28;20490;-45
2022/12/20 10:50:15;;;;;;;8.50;6.00;;;10.30;99.90;;;;;;5082232;27;20622;-46
2022/12/20 10:52:42;;;;;;;8.10;4.70;;;10.20;99.90;;;;;;5115782;27;20054;-42
2022/12/20 10:55:37;;;;;;;8.45;4.88;;;10.30;99.90;;;;;;5118436;27;20118;-43
2022/12/20 10:58:14;;;;;;;5.82;4.20;;;10.30;99.90;;;;;;5124438;27;20050;-44
2022/12/20 11:00:40;;;;;;;6.13;4.22;;;10.20;99.90;;;;;;5113938;27;20046;-44
2022/12/20 11:03:21;;;;;;;7.25;4.53;;;10.20;99.90;;;;;;5114900;27;20385;-43
2022/12/20 11:05:59;;;;;;;7.15;4.72;;;10.20;99.90;;;;;;5112763;27;20167;-47
2022/12/20 11:08:26;;;;;;;7.22;4.97;;;10.30;99.90;;;;;;5083912;27;20528;-46
2022/12/20 11:11:12;;;;;;;7.95;5.60;;;10.20;99.90;;;;;;5115380;27;20050;-43
2022/12/20 11:13:39;;;;;;;6.30;5.03;;;10.20;99.90;;;;;;5113867;27;20126;-44
2022/12/20 11:16:20;;;;;;;7.60;5.43;;;10.20;99.90;;;;;;5119237;27;20039;-46
2022/12/20 11:18:52;;;;;;;9.07;5.47;;;10.20;99.90;;;;;;5108002;27;20042;-43
2022/12/20 11:21:36;;;;;;;6.63;5.28;;;10.20;99.90;;;;;;5118012;27;20580;-45
2022/12/20 11:24:33;;;;;;;9.02;4.97;;;10.10;99.90;;;;;;5115652;27;20146;-46
2022/12/20 11:27:08;;;;;;;9.07;5.68;;;10.10;99.90;;;;;;5116303;27;20311;-46
2022/12/20 11:29:40;;;;;;;8.10;5.75;;;10.00;99.90;;;;;;5116601;27;20447;-45
2022/12/20 11:32:20;;;;;;;7.10;5.22;;;10.00;99.90;;;;;;5124612;27;20408;-49
2022/12/20 11:35:01;;;;;;;10.75;5.90;;;10.00;99.90;;;;;;5134120;27;20081;-43
2022/12/20 11:37:35;;;;;;;10.50;5.95;;;10.00;99.90;;;;;;5118444;27;20043;-42
2022/12/20 11:40:26;;;;;;;7.57;5.57;;;10.00;99.90;;;;;;5117278;27;20082;-46
2022/12/20 11:43:01;;;;;;;8.27;6.07;;;10.00;99.90;;;;;;5123719;27;20038;-44
2022/12/20 11:45:52;;;;;;;9.20;7.05;;;9.90;99.90;;;;;;5136020;27;20544;-42
2022/12/20 11:48:47;;;;;;;6.85;5.63;;;10.00;99.90;;;;;;5121600;27;20043;-46
2022/12/20 11:51:25;;;;;;;11.57;7.07;;;9.90;99.90;;;;;;4984561;28;20516;-49
2022/12/20 11:54:13;;;;;;;9.23;6.40;;;10.00;99.90;;;;;;5000317;28;20054;-46
2022/12/20 11:56:42;;;;;;;7.05;5.88;;;10.00;99.90;;;;;;5005706;28;20463;-47
2022/12/20 11:59:45;;;;;;;10.32;6.95;;;9.90;99.90;;;;;;4984674;28;20325;-47
2022/12/20 12:02:21;;;;;;;8.88;7.72;;;10.00;99.90;;;;;;5004542;28;20528;-43
2022/12/20 12:04:54;;;;;;;8.55;7.68;;;10.00;99.90;;;;;;4983832;28;20133;-45
2022/12/20 12:07:38;;;;;;;;;;;10.00;99.90;;;;;;5012208;28;20077;-43
2022/12/20 12:10:16;;;;;;;10.52;8.40;;;9.80;99.90;;;;;;4994669;28;19967;-46
2022/12/20 12:13:23;;;;;;;16.60;9.02;;;9.90;99.90;;;;;;5004924;28;20053;-43
2022/12/20 12:16:22;;;;;;;11.15;9.13;;;9.80;99.90;;;;;;4999162;28;20628;-43
2022/12/20 12:18:48;;;;;;;12.27;10.05;;;9.90;99.90;;;;;;4916567;29;20431;-47
2022/12/20 12:21:23;;;;;;;12.90;10.75;;;9.90;99.90;;;;;;4897085;29;21012;-46
2022/12/20 12:24:24;;;;;;;10.77;9.75;;;9.80;99.90;;;;;;4907508;29;20461;-46
2022/12/20 12:26:51;;;;;;;11.73;10.00;;;9.70;99.90;;;;;;4935094;28;20067;-47
2022/12/20 12:29:18;;;;;;;14.18;10.25;;;9.80;99.90;;;;;;5019805;28;20547;-46
2022/12/20 12:31:52;;;;;;;13.48;10.38;;;9.70;99.90;;;;;;5015097;28;20053;-44
2022/12/20 12:34:18;;;;;;;15.13;10.52;;;9.90;99.90;;;;;;5013666;28;20049;-46
2022/12/20 12:36:47;;;;;;;13.57;10.70;;;9.80;99.90;;;;;;5024755;28;20095;-48
2022/12/20 12:39:44;;;;;;;11.98;10.43;;;9.90;99.90;;;;;;5014226;28;20096;-48
2022/12/20 12:42:34;;;;;;;12.63;10.75;;;9.80;99.90;;;;;;5013360;28;20237;-45
2022/12/20 12:45:06;;;;;;;13.57;10.60;;;9.90;99.90;;;;;;5015312;28;20447;-46
2022/12/20 12:48:03;;;;;;;12.30;10.10;;;9.90;99.90;;;;;;5014746;28;20058;-46
2022/12/20 12:50:33;;;;;;;15.98;10.75;;;9.90;99.90;;;;;;5010009;28;20417;-47
2022/12/20 12:53:26;;;;;;;12.27;11.07;;;9.80;99.90;;;;;;5013146;28;20046;-47
2022/12/20 12:55:53;;;;;;;12.45;11.15;;;9.80;99.90;;;;;;5093813;27;20062;-44
2022/12/20 12:58:22;;;;;;;11.73;10.52;;;10.00;99.90;;;;;;5131615;27;20476;-48
2022/12/20 13:01:10;;;;;;;12.38;10.73;;;9.90;99.90;;;;;;5117864;27;20085;-43
2022/12/20 13:04:21;;;;;;;12.90;11.48;;;9.90;99.90;;;;;;5115316;27;20051;-47
2022/12/20 13:06:46;;;;;;;12.73;10.30;;;10.00;99.90;;;;;;5116653;27;20054;-46
2022/12/20 13:09:24;;;;;;;13.20;11.23;;;10.00;99.90;;;;;;5118793;27;20100;-46
2022/12/20 13:11:51;;;;;;;12.10;10.80;;;10.00;99.90;;;;;;5131578;27;20162;-46
2022/12/20 13:14:21;;;;;;;12.40;11.15;;;9.90;99.90;;;;;;5118024;27;20047;-46
2022/12/20 13:16:48;;;;;;;12.02;10.80;;;9.90;99.90;;;;;;5118312;27;20127;-47
2022/12/20 13:19:15;;;;;;;12.65;11.38;;;9.90;99.90;;;;;;5126989;27;20539;-46
2022/12/20 13:21:47;;;;;;;12.48;11.00;;;10.10;99.90;;;;;;5117428;27;20370;-46